createdAt,value
2022-11-05T00:00:27.840Z,29.48
2022-11-05T00:05:25.001Z,29.99
2022-11-05T00:10:25.093Z,30.51
2022-11-05T00:15:23.369Z,30.19
2022-11-05T00:20:23.780Z,29.48
2022-11-05T00:25:22.924Z,29.99
2022-11-05T00:30:21.226Z,30.60
2022-11-05T00:35:20.566Z,30.30
2022-11-05T00:40:19.887Z,30.10
2022-11-05T00:45:19.223Z,29.79
2022-11-05T00:50:19.548Z,29.48
2022-11-05T00:55:17.902Z,29.48
2022-11-05T01:00:17.011Z,30.19
2022-11-05T01:05:16.404Z,29.99
2022-11-05T01:10:16.560Z,29.68
2022-11-05T01:15:13.677Z,29.99
2022-11-05T01:20:16.004Z,30.71
2022-11-05T01:25:14.427Z,30.10
2022-11-05T01:30:12.534Z,30.60
2022-11-05T01:35:11.835Z,31.13
2022-11-05T01:40:12.056Z,31.75
2022-11-05T01:45:10.259Z,32.26
2022-11-05T01:50:09.440Z,32.78
2022-11-05T01:55:08.632Z,33.29
2022-11-05T02:00:07.807Z,33.92
2022-11-05T02:05:06.981Z,34.23
2022-11-05T02:10:08.179Z,34.64
2022-11-05T02:15:07.350Z,35.16
2022-11-05T02:20:04.528Z,35.58
2022-11-05T02:25:04.823Z,36.00
2022-11-05T02:30:04.019Z,36.32
2022-11-05T02:35:02.222Z,36.71
2022-11-05T02:40:00.486Z,37.03
2022-11-05T02:45:00.828Z,37.45
2022-11-05T02:49:59.930Z,37.76
2022-11-05T02:55:00.154Z,38.18
2022-11-05T02:59:59.389Z,38.49
2022-11-05T03:04:57.778Z,38.71
2022-11-05T03:09:56.762Z,39.03
2022-11-05T03:14:57.034Z,39.32
2022-11-05T03:19:55.324Z,39.64
2022-11-05T03:24:54.549Z,39.86
2022-11-05T03:29:53.724Z,40.06
2022-11-05T03:34:52.960Z,40.28
2022-11-05T03:39:52.295Z,40.48
2022-11-05T03:44:51.479Z,40.70
2022-11-05T03:49:51.839Z,40.89
2022-11-05T03:54:51.003Z,41.02
2022-11-05T03:59:49.241Z,41.22
2022-11-05T04:04:48.513Z,41.31
2022-11-05T04:09:48.749Z,41.44
2022-11-05T04:14:48.038Z,41.63
2022-11-05T04:19:46.258Z,41.74
2022-11-05T04:24:45.360Z,41.63
2022-11-05T04:29:45.843Z,41.33
2022-11-05T04:34:44.035Z,40.92
2022-11-05T04:39:43.281Z,40.40
2022-11-05T04:44:42.555Z,39.88
2022-11-05T04:49:42.681Z,39.46
2022-11-05T04:54:41.808Z,39.14
2022-11-05T04:59:40.072Z,38.95
2022-11-05T05:04:39.427Z,38.84
2022-11-05T05:09:38.555Z,38.84
2022-11-05T05:14:37.960Z,38.96
2022-11-05T05:19:37.277Z,39.16
2022-11-05T05:24:37.354Z,39.36
2022-11-05T05:29:36.660Z,39.48
2022-11-05T05:34:35.139Z,39.68
2022-11-05T05:39:35.353Z,39.90
2022-11-05T05:44:34.603Z,40.20
2022-11-05T05:49:34.845Z,40.42
2022-11-05T05:54:37.083Z,40.52
2022-11-05T05:59:31.248Z,40.73
2022-11-05T06:04:31.406Z,40.94
2022-11-05T06:09:29.765Z,41.05
2022-11-05T06:14:28.729Z,41.05
2022-11-05T06:19:28.842Z,40.73
2022-11-05T06:24:27.117Z,40.32
2022-11-05T06:29:27.413Z,39.70
2022-11-05T06:34:26.837Z,39.08
2022-11-05T06:39:29.390Z,38.54
2022-11-05T06:44:26.105Z,38.25
2022-11-05T06:49:24.524Z,37.95
2022-11-05T06:54:22.694Z,37.85
2022-11-05T06:59:21.992Z,37.75
2022-11-05T07:04:21.083Z,37.95
2022-11-05T07:09:21.391Z,38.07
2022-11-05T07:14:19.652Z,38.17
2022-11-05T07:19:18.960Z,38.39
2022-11-05T07:24:18.258Z,38.59
2022-11-05T07:29:18.570Z,38.80
2022-11-05T07:34:16.882Z,39.02
2022-11-05T07:39:16.309Z,39.22
2022-11-05T07:44:15.446Z,39.43
2022-11-05T07:49:13.810Z,39.64
2022-11-05T07:54:15.066Z,39.65
2022-11-05T07:59:15.169Z,39.65
2022-11-05T08:04:12.496Z,39.34
2022-11-05T08:09:12.805Z,38.50
2022-11-05T08:14:11.222Z,37.67
2022-11-05T08:19:11.443Z,36.83
2022-11-05T08:24:10.526Z,36.74
2022-11-05T08:29:08.844Z,36.54
2022-11-05T08:34:07.995Z,36.44
2022-11-05T08:39:11.641Z,36.44
2022-11-05T08:44:06.342Z,36.44
2022-11-05T08:49:06.887Z,36.55
2022-11-05T08:54:05.661Z,36.85
2022-11-05T08:59:07.869Z,37.07
2022-11-05T09:04:02.974Z,37.27
2022-11-05T09:09:03.292Z,37.49
2022-11-05T09:14:01.569Z,37.81
2022-11-05T09:19:01.886Z,38.10
2022-11-05T09:24:00.210Z,38.32
2022-11-05T09:29:00.352Z,38.54
2022-11-05T09:33:59.616Z,38.84
2022-11-05T09:38:58.712Z,38.74
2022-11-05T09:43:57.027Z,38.74
2022-11-05T09:48:56.348Z,38.54
2022-11-05T09:53:55.662Z,38.42
2022-11-05T09:58:54.971Z,38.22
2022-11-05T10:03:54.352Z,38.02
2022-11-05T10:08:54.519Z,37.90
2022-11-05T10:13:53.804Z,37.14
2022-11-05T10:18:51.942Z,38.64
2022-11-05T10:23:52.268Z,39.29
2022-11-05T10:28:51.589Z,39.91
2022-11-05T10:33:50.926Z,40.45
2022-11-05T10:38:49.340Z,40.27
2022-11-05T10:43:48.277Z,40.59
2022-11-05T10:48:47.562Z,41.27
2022-11-05T10:53:46.818Z,41.13
2022-11-05T10:58:45.989Z,34.91
2022-11-05T11:03:46.151Z,36.69
2022-11-05T11:08:44.548Z,37.30
2022-11-05T11:13:43.696Z,36.59
2022-11-05T11:18:44.017Z,35.68
2022-11-05T11:23:42.340Z,34.64
2022-11-05T11:28:41.590Z,35.36
2022-11-05T11:33:42.208Z,33.42
2022-11-05T11:38:40.984Z,34.22
2022-11-05T11:43:37.107Z,32.86
2022-11-05T11:48:38.240Z,33.73
2022-11-05T11:53:38.571Z,31.93
2022-11-05T11:58:37.872Z,31.93
2022-11-05T12:03:36.215Z,32.32
2022-11-05T12:08:35.331Z,31.64
2022-11-05T12:13:34.670Z,31.94
2022-11-05T12:18:34.866Z,31.41
2022-11-05T12:23:32.970Z,31.60
2022-11-05T12:28:32.440Z,31.30
2022-11-05T12:33:31.464Z,30.62
2022-11-05T12:38:30.865Z,30.99
2022-11-05T12:43:31.773Z,30.52
2022-11-05T12:48:34.189Z,31.93
2022-11-05T12:53:28.208Z,32.35
2022-11-05T12:58:29.496Z,33.28
2022-11-05T13:03:27.054Z,33.25
2022-11-05T13:08:25.987Z,35.50
2022-11-05T13:13:25.579Z,33.17
2022-11-05T13:18:24.727Z,33.47
2022-11-05T13:23:24.965Z,33.47
2022-11-05T13:28:24.318Z,31.93
2022-11-05T13:33:22.473Z,30.54
2022-11-05T13:38:21.623Z,30.79
2022-11-05T13:43:20.544Z,29.34
2022-11-05T13:48:19.826Z,30.60
2022-11-05T13:53:20.091Z,30.94
2022-11-05T13:58:19.361Z,31.29
2022-11-05T14:03:17.668Z,31.32
2022-11-05T14:08:17.293Z,31.07
2022-11-05T14:13:17.559Z,32.08
2022-11-05T14:18:16.739Z,33.09
2022-11-05T14:23:15.512Z,29.81
2022-11-05T14:28:14.315Z,31.26
2022-11-05T14:33:14.562Z,31.77
2022-11-05T14:38:12.756Z,30.99
2022-11-05T14:43:12.016Z,31.98
2022-11-05T14:48:12.253Z,32.89
2022-11-05T14:53:11.561Z,32.93
2022-11-05T14:58:09.768Z,29.34
2022-11-05T15:03:08.855Z,32.94
2022-11-05T15:08:10.156Z,32.63
2022-11-05T15:13:07.095Z,33.24
2022-11-05T15:18:06.458Z,34.20
2022-11-05T15:23:05.420Z,34.23
2022-11-05T15:28:04.560Z,34.63
2022-11-05T15:33:04.159Z,34.92
2022-11-05T15:38:04.152Z,35.33
2022-11-05T15:43:02.409Z,35.22
2022-11-05T15:48:01.613Z,33.53
2022-11-05T15:53:20.734Z,33.95
2022-11-05T15:58:00.345Z,34.64
2022-11-05T16:02:59.661Z,33.18
2022-11-05T16:07:59.504Z,32.33
2022-11-05T16:12:56.961Z,30.32
2022-11-05T16:17:57.066Z,33.81
2022-11-05T16:22:56.331Z,32.82
2022-11-05T16:27:55.684Z,32.30
2022-11-05T16:32:54.001Z,30.84
2022-11-05T16:37:54.316Z,32.59
2022-11-05T16:42:53.554Z,32.08
2022-11-05T16:47:52.388Z,32.24
2022-11-05T16:52:51.933Z,33.45
2022-11-05T16:57:51.994Z,32.76
2022-11-05T17:02:50.243Z,33.23
2022-11-05T17:07:50.641Z,34.56
2022-11-05T17:12:49.968Z,34.86
2022-11-05T17:17:47.090Z,34.48
2022-11-05T17:22:47.400Z,34.18
2022-11-05T17:27:48.343Z,34.80
2022-11-05T17:32:45.699Z,34.78
2022-11-05T17:37:45.147Z,35.31
2022-11-05T17:42:43.319Z,35.72
2022-11-05T17:47:45.538Z,35.61
2022-11-05T17:52:42.968Z,35.59
2022-11-05T17:57:41.780Z,35.28
2022-11-05T18:02:42.423Z,34.94
2022-11-05T18:07:40.597Z,34.43
2022-11-05T18:12:40.225Z,33.92
2022-11-05T18:17:39.138Z,34.01
2022-11-05T18:22:39.307Z,34.09
2022-11-05T18:27:36.258Z,42.82
2022-11-05T18:32:37.663Z,39.09
2022-11-05T18:37:36.609Z,35.47
2022-11-05T18:42:36.094Z,35.06
2022-11-05T18:47:34.853Z,34.98
2022-11-05T18:52:34.986Z,34.68
2022-11-05T18:57:32.549Z,34.59
2022-11-05T19:02:31.223Z,34.81
2022-11-05T19:07:31.258Z,34.71
2022-11-05T19:12:30.413Z,35.23
2022-11-05T19:17:29.301Z,35.31
2022-11-05T19:22:28.961Z,34.59
2022-11-05T19:27:29.095Z,33.86
2022-11-05T19:32:28.450Z,34.38
2022-11-05T19:37:27.634Z,34.50
2022-11-05T19:42:25.783Z,34.27
2022-11-05T19:47:25.953Z,34.50
2022-11-05T19:52:25.720Z,34.81
2022-11-05T19:57:22.390Z,35.13
2022-11-05T20:02:22.452Z,35.05
2022-11-05T20:07:21.793Z,35.46
2022-11-05T20:12:23.774Z,35.56
2022-11-05T20:17:19.962Z,35.26
2022-11-05T20:22:22.525Z,35.58
2022-11-05T20:27:18.715Z,35.08
2022-11-05T20:32:19.286Z,36.10
2022-11-05T20:37:20.018Z,35.08
2022-11-05T20:42:16.561Z,34.98
2022-11-05T20:47:15.614Z,34.68
2022-11-05T20:52:15.477Z,34.38
2022-11-05T20:57:24.444Z,34.99
2022-11-05T21:02:14.399Z,33.75
2022-11-05T21:07:13.294Z,33.45
2022-11-05T21:12:10.336Z,34.18
2022-11-05T21:17:09.787Z,34.18
2022-11-05T21:22:10.207Z,34.50
2022-11-05T21:27:10.402Z,34.51
2022-11-05T21:32:09.497Z,34.08
2022-11-05T21:37:07.820Z,34.61
2022-11-05T21:42:09.729Z,33.70
2022-11-05T21:47:06.285Z,34.21
2022-11-05T21:52:05.262Z,32.33
2022-11-05T21:57:07.079Z,33.08
2022-11-05T22:02:04.007Z,33.78
2022-11-05T22:07:02.847Z,33.09
2022-11-05T22:12:01.487Z,33.70
2022-11-05T22:17:01.453Z,33.29
2022-11-05T22:22:00.738Z,32.83
2022-11-05T22:27:00.947Z,32.87
2022-11-05T22:31:59.190Z,31.58
2022-11-05T22:36:58.537Z,31.03
2022-11-05T22:41:57.604Z,31.64
2022-11-05T22:46:57.668Z,33.22
2022-11-05T22:51:56.868Z,33.25
2022-11-05T22:56:56.055Z,33.68
2022-11-05T23:01:54.340Z,33.50
2022-11-05T23:06:53.593Z,33.58
2022-11-05T23:11:52.802Z,33.61
2022-11-05T23:16:55.996Z,32.79
2022-11-05T23:21:51.754Z,32.48
2022-11-05T23:26:50.414Z,32.79
2022-11-05T23:31:49.860Z,32.89
2022-11-05T23:36:49.885Z,32.51
2022-11-05T23:41:48.109Z,32.71
2022-11-05T23:46:46.314Z,31.05
2022-11-05T23:51:46.476Z,31.09
2022-11-05T23:56:46.674Z,29.48
